Mazarn, Arkansas
Current Conditions -  °F | °C
As of 7:53 AM on Sunday 25 Jan 2015 (Local Time) from KHOT Reporting Station
Few Clouds Few Clouds  
Wind Chill: 42°   Ceiling: Unl
Heat Index: 42°   Visibility: 10mi
Dew Point: 36°   Wind: 3mph
Humidity: 79%   Direction: 290°WNW
Pressure: 29.79"   Gusts: NA
Location:  34.3467°N, 93.3187°W
Report Text: KHOT 251353Z AUTO 29003KT 10SM FEW080 06/02 A2979 RMK AO2 SLP088 T00560022
Loading
Personal Weather Stations






























Interactive Weather Map New forecast layout! Learn more

10-Day Weather Forecast

Advertisements
Track Severe Weather on mobile